Time;durP1;ratioP1;P1;durP2;ratioP2;P2;SDS_P1;SDS_P2;PMS_P1;PMS_P2;Temp;Humidity;BMP_temperature;BMP_pressure;BME280_temperature;BME280_humidity;BME280_pressure;Samples;Min_cycle;Max_cycle;Signal;HPM_P1;HPM_P2
2021/10/11 00:02:11;;;;;;;1.98;1.52;;;;;;;22.00;36.65;100499.84;5044129;28;20065;-63
2021/10/11 00:04:38;;;;;;;4.25;1.77;;;;;;;22.05;36.42;100487.41;5046434;28;20047;-61
2021/10/11 00:07:06;;;;;;;5.43;1.92;;;;;;;22.01;36.65;100480.78;5028232;28;20449;-61
2021/10/11 00:09:34;;;;;;;2.28;1.50;;;;;;;21.66;36.38;100421.66;5051021;28;20124;-61
2021/10/11 00:12:01;;;;;;;4.28;1.98;;;;;;;22.06;36.40;100491.09;5048626;28;20124;-61
2021/10/11 00:14:28;;;;;;;2.90;1.85;;;;;;;21.96;36.38;100484.69;5044349;28;20136;-61
2021/10/11 00:16:54;;;;;;;3.85;2.05;;;;;;;22.04;36.27;100488.59;5040124;28;20127;-62
2021/10/11 00:19:21;;;;;;;4.82;2.20;;;;;;;22.05;36.27;100492.25;5037599;28;20045;-60
2021/10/11 00:21:48;;;;;;;3.17;2.20;;;;;;;22.06;36.41;100482.56;5049078;28;20552;-59
2021/10/11 00:24:15;;;;;;;3.28;2.22;;;;;;;22.06;36.35;100486.22;5043447;28;20081;-64
2021/10/11 00:26:42;;;;;;;3.92;1.77;;;;;;;21.82;36.51;100472.06;5038277;28;20440;-62
2021/10/11 00:29:09;;;;;;;4.30;1.77;;;;;;;21.97;36.35;100483.50;5038061;28;20123;-64
2021/10/11 00:31:36;;;;;;;2.85;1.92;;;;;;;21.92;36.42;100480.94;5048668;28;20151;-64
2021/10/11 00:34:02;;;;;;;4.13;2.25;;;;;;;21.92;36.33;100483.78;5050849;28;20128;-65
2021/10/11 00:36:29;;;;;;;3.83;1.45;;;;;;;21.94;36.54;100478.53;5032371;28;20049;-66
2021/10/11 00:38:56;;;;;;;3.75;1.85;;;;;;;21.85;36.25;100479.88;5043548;28;20129;-66
2021/10/11 00:41:27;;;;;;;3.55;1.88;;;;;;;21.76;36.62;100460.13;5039624;28;20501;-64
2021/10/11 00:43:55;;;;;;;3.90;2.10;;;;;;;21.85;36.24;100475.03;5046093;28;20123;-63
2021/10/11 00:46:22;;;;;;;3.35;1.58;;;;;;;21.82;36.53;100470.06;5036183;28;20136;-63
2021/10/11 00:48:48;;;;;;;2.03;1.65;;;;;;;21.85;36.51;100479.88;5044821;28;20284;-61
2021/10/11 00:51:16;;;;;;;3.47;1.98;;;;;;;21.88;36.37;100468.63;5039860;28;20527;-63
2021/10/11 00:53:43;;;;;;;4.70;1.80;;;;;;;21.76;36.33;100480.00;5052591;28;20124;-62
2021/10/11 00:56:09;;;;;;;3.10;1.90;;;;;;;21.60;36.45;100440.13;5052493;28;20084;-61
2021/10/11 00:58:36;;;;;;;3.17;1.45;;;;;;;21.70;36.81;100461.53;5051388;28;20563;-61
2021/10/11 01:01:03;;;;;;;2.85;1.80;;;;;;;21.73;36.74;100469.34;5051792;28;20127;-62
2021/10/11 01:03:32;;;;;;;3.38;1.55;;;;;;;21.66;36.56;100455.75;5053652;28;20140;-62
2021/10/11 01:05:59;;;;;;;1.70;1.15;;;;;;;21.69;36.77;100471.25;5046337;28;20076;-63
2021/10/11 01:08:26;;;;;;;2.47;1.80;;;;;;;21.65;36.78;100476.00;5051418;28;20041;-62
2021/10/11 01:10:56;;;;;;;1.50;1.20;;;;;;;21.59;36.61;100466.06;5050364;28;20580;-61
2021/10/11 01:13:23;;;;;;;3.42;2.10;;;;;;;21.58;36.75;100461.56;5033530;28;20081;-62
2021/10/11 01:15:49;;;;;;;1.95;1.10;;;;;;;21.53;36.84;100474.81;5045642;28;20088;-61
2021/10/11 01:18:16;;;;;;;3.42;1.15;;;;;;;21.59;36.76;100468.91;5049253;28;20076;-62
2021/10/11 01:20:43;;;;;;;3.90;2.35;;;;;;;21.35;36.85;100439.34;5047375;28;20453;-61
2021/10/11 01:23:10;;;;;;;1.02;0.90;;;;;;;21.41;36.82;100462.66;5041718;28;20137;-61
2021/10/11 01:25:37;;;;;;;2.28;1.23;;;;;;;21.48;36.78;100455.19;5047958;28;20545;-61
2021/10/11 01:28:04;;;;;;;5.60;2.30;;;;;;;21.51;36.88;100468.69;5045465;28;20076;-61
2021/10/11 01:30:31;;;;;;;4.80;2.28;;;;;;;21.51;37.04;100465.03;5029568;28;20500;-63
2021/10/11 01:32:58;;;;;;;0.75;0.60;;;;;;;21.52;36.69;100467.50;5049148;28;20376;-61
2021/10/11 01:35:25;;;;;;;2.40;1.60;;;;;;;21.47;36.83;100459.22;5046336;28;20098;-64
2021/10/11 01:37:52;;;;;;;2.00;1.52;;;;;;;21.42;37.18;100462.28;5039186;28;20075;-65
2021/10/11 01:40:23;;;;;;;3.42;1.33;;;;;;;21.49;37.00;100456.84;5046819;28;20063;-66
2021/10/11 01:42:51;;;;;;;1.90;1.52;;;;;;;21.25;37.10;100449.13;5050010;28;20053;-65
2021/10/11 01:45:18;;;;;;;2.78;1.65;;;;;;;21.39;36.99;100457.31;5044578;28;20132;-65
2021/10/11 01:47:45;;;;;;;1.88;0.93;;;;;;;21.01;37.15;100400.88;5049338;28;20079;-62
2021/10/11 01:50:12;;;;;;;2.47;1.33;;;;;;;21.39;37.03;100459.34;5032136;28;20115;-62
2021/10/11 01:52:40;;;;;;;1.85;1.13;;;;;;;21.24;37.38;100446.66;5051439;28;20093;-61
2021/10/11 01:55:07;;;;;;;1.77;1.20;;;;;;;21.27;37.43;100443.94;5050518;28;20131;-60
2021/10/11 01:57:36;;;;;;;2.83;1.65;;;;;;;21.22;37.69;100464.03;5050661;28;20079;-60
2021/10/11 02:00:08;;;;;;;2.17;0.65;;;;;;;21.20;37.39;100442.88;5040576;28;20128;-61
2021/10/11 02:02:35;;;;;;;0.73;0.60;;;;;;;21.16;37.49;100450.44;5031412;28;20131;-62
2021/10/11 02:05:03;;;;;;;2.97;1.90;;;;;;;21.11;37.75;100445.81;5045422;28;20075;-60
2021/10/11 02:07:30;;;;;;;1.27;0.82;;;;;;;21.20;37.50;100454.25;5041102;28;20520;-59
2021/10/11 02:09:57;;;;;;;2.47;1.35;;;;;;;21.24;37.46;100455.19;5044022;28;20441;-59
2021/10/11 02:12:24;;;;;;;6.07;1.58;;;;;;;20.56;37.53;100347.88;5041067;28;20038;-59
2021/10/11 02:14:50;;;;;;;3.92;1.77;;;;;;;21.19;37.49;100449.72;5048375;28;20123;-60
2021/10/11 02:17:18;;;;;;;2.05;1.35;;;;;;;21.02;37.68;100445.91;5049720;28;20128;-60
2021/10/11 02:19:45;;;;;;;1.17;1.08;;;;;;;20.75;38.04;100416.25;5049533;28;20095;-59
2021/10/11 02:22:12;;;;;;;2.15;1.17;;;;;;;20.83;37.84;100423.81;5049857;28;20053;-60
2021/10/11 02:24:39;;;;;;;1.75;1.25;;;;;;;20.99;37.82;100442.97;5048382;28;20073;-61
2021/10/11 02:27:06;;;;;;;1.23;0.70;;;;;;;20.85;37.96;100419.78;5046910;28;20080;-61
2021/10/11 02:29:32;;;;;;;5.50;2.08;;;;;;;20.89;38.08;100429.22;5038009;28;20492;-61
2021/10/11 02:31:59;;;;;;;2.67;1.83;;;;;;;20.82;38.19;100432.69;5021668;28;20576;-60
2021/10/11 02:34:26;;;;;;;1.83;1.38;;;;;;;20.98;37.99;100447.81;5049790;28;20075;-63
2021/10/11 02:36:53;;;;;;;2.78;0.90;;;;;;;20.86;38.19;100453.50;5050031;28;20086;-63
2021/10/11 02:39:20;;;;;;;1.13;1.02;;;;;;;20.75;38.12;100426.72;5047150;28;20053;-65
2021/10/11 02:41:47;;;;;;;3.22;1.75;;;;;;;20.90;38.02;100431.72;5042531;28;20453;-63
2021/10/11 02:44:14;;;;;;;1.38;1.15;;;;;;;20.88;38.21;100433.25;5049197;28;20141;-63
2021/10/11 02:46:41;;;;;;;2.50;1.30;;;;;;;20.85;38.26;100442.47;5039453;28;20475;-61
2021/10/11 02:49:07;;;;;;;2.80;1.55;;;;;;;20.82;38.22;100427.84;5044184;28;20095;-59
2021/10/11 02:51:34;;;;;;;1.80;1.20;;;;;;;20.81;38.07;100439.53;5050663;28;20068;-60
2021/10/11 02:54:01;;;;;;;1.38;1.15;;;;;;;20.63;38.25;100413.38;5050070;28;20075;-61
2021/10/11 02:56:28;;;;;;;1.05;0.80;;;;;;;20.80;38.47;100443.56;5041264;28;20524;-63
2021/10/11 02:58:55;;;;;;;1.77;1.25;;;;;;;20.69;38.37;100416.81;5046833;28;20543;-62
2021/10/11 03:01:22;;;;;;;1.08;0.82;;;;;;;20.69;38.47;100414.81;5041570;28;20044;-62
2021/10/11 03:03:48;;;;;;;2.35;1.60;;;;;;;20.67;38.36;100402.97;5032310;28;20081;-64
2021/10/11 03:06:15;;;;;;;3.10;1.70;;;;;;;20.71;38.77;100415.25;5042394;28;20075;-61
2021/10/11 03:08:42;;;;;;;1.92;1.10;;;;;;;20.75;38.65;100426.72;5049582;28;20144;-61
2021/10/11 03:11:09;;;;;;;1.70;1.05;;;;;;;20.76;38.58;100417.06;5048228;28;20131;-59
2021/10/11 03:13:36;;;;;;;3.60;1.77;;;;;;;20.61;38.63;100409.22;5048838;28;20076;-59
2021/10/11 03:16:03;;;;;;;3.70;1.77;;;;;;;20.57;38.91;100418.44;5042969;28;20580;-61
2021/10/11 03:18:30;;;;;;;1.08;0.77;;;;;;;20.68;38.80;100423.66;5049674;28;20135;-62
2021/10/11 03:20:56;;;;;;;2.05;1.30;;;;;;;20.80;38.58;100429.34;5051599;28;20120;-68
2021/10/11 03:23:25;;;;;;;2.90;1.40;;;;;;;20.71;38.62;100425.78;5042043;28;20041;-67
2021/10/11 03:25:52;;;;;;;1.30;0.93;;;;;;;20.66;38.59;100411.84;5043371;28;20139;-62
2021/10/11 03:28:19;;;;;;;2.67;1.58;;;;;;;20.63;38.82;100426.72;5043412;28;20045;-62
2021/10/11 03:30:46;;;;;;;3.08;1.80;;;;;;;20.56;38.79;100396.94;5045683;28;20508;-61
2021/10/11 03:33:13;;;;;;;0.93;0.82;;;;;;;20.62;39.13;100410.91;5045682;28;20060;-62
2021/10/11 03:35:40;;;;;;;1.40;1.08;;;;;;;20.57;39.08;100420.44;5046494;28;20068;-63
2021/10/11 03:38:07;;;;;;;2.92;1.65;;;;;;;20.52;38.90;100404.50;5043876;28;20049;-63
2021/10/11 03:40:34;;;;;;;1.15;0.95;;;;;;;20.48;39.06;100419.69;5044613;28;20053;-60
2021/10/11 03:43:01;;;;;;;4.00;1.73;;;;;;;20.51;39.08;100401.97;5050148;28;20143;-60
2021/10/11 03:45:28;;;;;;;2.22;1.45;;;;;;;20.47;39.07;100416.00;5041944;28;20132;-60
2021/10/11 03:47:55;;;;;;;2.17;1.42;;;;;;;20.31;39.03;100389.53;5042239;28;20409;-60
2021/10/11 03:50:21;;;;;;;2.85;1.55;;;;;;;20.52;39.12;100418.66;5035227;28;20751;-61
2021/10/11 03:52:48;;;;;;;2.33;1.55;;;;;;;20.54;39.31;100416.28;5037048;28;20076;-60
2021/10/11 03:55:15;;;;;;;3.05;2.00;;;;;;;20.45;39.41;100414.72;5041336;28;20132;-61
2021/10/11 03:57:42;;;;;;;1.80;1.10;;;;;;;20.29;39.49;100389.84;5048828;28;20069;-61
2021/10/11 04:00:10;;;;;;;2.30;1.15;;;;;;;20.33;39.53;100409.84;5045569;28;20060;-60
2021/10/11 04:02:37;;;;;;;2.67;1.38;;;;;;;20.40;39.75;100418.59;5044234;28;20077;-61
2021/10/11 04:05:04;;;;;;;2.13;1.30;;;;;;;20.18;39.64;100379.31;5042061;28;20076;-59
2021/10/11 04:07:31;;;;;;;2.42;1.10;;;;;;;20.28;39.72;100421.41;5049603;28;20451;-59
2021/10/11 04:10:03;;;;;;;1.35;1.13;;;;;;;20.22;39.87;100414.28;5049813;28;20428;-59
2021/10/11 04:12:36;;;;;;;2.00;1.38;;;;;;;20.21;39.77;100415.47;5046423;28;20055;-61
2021/10/11 04:15:06;;;;;;;7.03;1.23;;;;;;;20.18;39.95;100410.50;5043149;28;20144;-63
2021/10/11 04:17:39;;;;;;;0.95;0.70;;;;;;;20.22;40.30;100426.47;5029404;28;20045;-60
2021/10/11 04:20:07;;;;;;;2.78;1.40;;;;;;;20.12;39.95;100398.53;5030572;28;20088;-61
2021/10/11 04:22:35;;;;;;;2.28;1.17;;;;;;;20.23;39.97;100427.28;5048950;28;20453;-61
2021/10/11 04:25:02;;;;;;;3.08;1.55;;;;;;;20.04;40.23;100402.31;5052780;28;20124;-61
2021/10/11 04:27:29;;;;;;;1.17;0.77;;;;;;;20.04;40.44;100402.31;5052714;28;20454;-61
2021/10/11 04:29:56;;;;;;;5.45;1.23;;;;;;;20.22;40.20;100425.63;5044225;28;20069;-61
2021/10/11 04:32:23;;;;;;;1.83;1.42;;;;;;;20.19;40.56;100438.50;5051130;28;20128;-62
2021/10/11 04:34:49;;;;;;;1.35;1.25;;;;;;;20.13;40.40;100434.22;5052891;28;20657;-59
2021/10/11 04:37:16;;;;;;;2.47;1.77;;;;;;;20.17;40.61;100437.19;5049719;28;20460;-59
2021/10/11 04:39:43;;;;;;;1.85;1.40;;;;;;;19.87;40.56;100408.97;5046429;28;20132;-59
2021/10/11 04:42:10;;;;;;;1.40;1.23;;;;;;;20.02;40.28;100433.81;5050968;28;20143;-60
2021/10/11 04:44:37;;;;;;;4.03;1.38;;;;;;;20.14;40.72;100444.41;5044136;28;20077;-59
2021/10/11 04:47:03;;;;;;;1.63;1.05;;;;;;;20.05;40.67;100427.47;5044099;28;20900;-59
2021/10/11 04:49:30;;;;;;;2.58;1.80;;;;;;;20.04;41.03;100439.97;5044081;28;20115;-59
2021/10/11 04:51:57;;;;;;;3.60;1.08;;;;;;;20.03;40.69;100443.16;5043613;28;20046;-60
2021/10/11 04:54:24;;;;;;;2.00;1.35;;;;;;;19.87;40.95;100421.13;5041836;28;20476;-62
2021/10/11 04:56:51;;;;;;;4.57;1.33;;;;;;;20.04;41.09;100439.97;5051947;28;20080;-63
2021/10/11 04:59:18;;;;;;;1.73;1.30;;;;;;;20.07;41.00;100444.97;5043629;28;20136;-64
2021/10/11 05:01:44;;;;;;;1.60;1.08;;;;;;;20.01;41.21;100437.00;5050929;28;20060;-64
2021/10/11 05:04:11;;;;;;;2.85;1.10;;;;;;;19.93;40.97;100432.22;5035361;28;20044;-62
2021/10/11 05:06:38;;;;;;;1.67;1.00;;;;;;;19.99;40.97;100431.66;5050562;28;20143;-60
2021/10/11 05:09:05;;;;;;;1.60;1.10;;;;;;;19.95;41.41;100427.88;5051004;28;20132;-59
2021/10/11 05:11:32;;;;;;;1.33;1.20;;;;;;;19.91;41.38;100443.94;5040880;28;20536;-58
2021/10/11 05:13:58;;;;;;;3.80;1.15;;;;;;;19.94;41.19;100443.25;5021148;28;20084;-58
2021/10/11 05:16:27;;;;;;;1.17;1.05;;;;;;;19.86;41.38;100427.13;5050032;28;20083;-58
2021/10/11 05:18:54;;;;;;;1.00;0.80;;;;;;;19.77;41.39;100415.03;5033004;28;20110;-61
2021/10/11 05:21:21;;;;;;;2.58;1.55;;;;;;;19.99;41.40;100451.50;5037516;28;20128;-58
2021/10/11 05:23:48;;;;;;;2.25;1.73;;;;;;;19.96;41.38;100445.72;5039490;28;20076;-61
2021/10/11 05:26:15;;;;;;;2.28;1.30;;;;;;;19.84;41.52;100438.00;5035040;28;20124;-61
2021/10/11 05:28:42;;;;;;;2.90;1.52;;;;;;;19.90;41.55;100442.28;5048153;28;20136;-59
2021/10/11 05:31:09;;;;;;;1.38;1.13;;;;;;;19.92;41.61;100448.41;5044951;28;20136;-59
2021/10/11 05:33:36;;;;;;;3.75;2.67;;;;;;;19.92;41.62;100451.25;5043542;28;20076;-60
2021/10/11 05:36:04;;;;;;;2.90;1.35;;;;;;;19.84;41.59;100443.66;5042275;28;20484;-60
2021/10/11 05:38:32;;;;;;;1.60;1.38;;;;;;;19.86;41.71;100458.28;5036336;28;20143;-60
2021/10/11 05:41:00;;;;;;;0.75;0.55;;;;;;;19.88;41.85;100464.44;5037499;28;20213;-60
2021/10/11 05:43:27;;;;;;;1.27;1.02;;;;;;;19.83;41.99;100464.69;5041855;28;20087;-61
2021/10/11 05:45:54;;;;;;;3.50;2.22;;;;;;;19.85;42.28;100456.63;5047408;28;20043;-62
2021/10/11 05:48:20;;;;;;;2.33;1.52;;;;;;;19.86;41.86;100452.63;5043725;28;20462;-61
2021/10/11 05:50:47;;;;;;;1.65;1.33;;;;;;;19.72;41.95;100450.06;5047944;28;20524;-60
2021/10/11 05:53:14;;;;;;;3.47;1.73;;;;;;;19.77;42.09;100461.22;5041917;28;20119;-60
2021/10/11 05:55:41;;;;;;;2.90;1.58;;;;;;;19.76;42.31;100464.38;5045487;28;20124;-61
2021/10/11 05:58:08;;;;;;;1.05;0.95;;;;;;;19.74;42.29;100472.41;5041426;28;20120;-61
2021/10/11 06:00:35;;;;;;;2.58;1.45;;;;;;;19.68;42.47;100459.59;5043223;28;20072;-61
2021/10/11 06:03:02;;;;;;;1.48;1.05;;;;;;;19.68;42.52;100470.94;5014147;28;20056;-61
2021/10/11 06:05:29;;;;;;;1.48;1.05;;;;;;;19.56;42.61;100457.50;5047502;28;20128;-61
2021/10/11 06:07:56;;;;;;;1.83;1.20;;;;;;;19.58;42.53;100460.81;5051540;28;20500;-61
2021/10/11 06:10:23;;;;;;;3.15;1.70;;;;;;;19.55;42.99;100473.66;5041042;28;20072;-61
2021/10/11 06:12:50;;;;;;;1.25;0.95;;;;;;;19.51;43.05;100477.50;5039021;28;20136;-61
2021/10/11 06:15:16;;;;;;;2.22;1.55;;;;;;;19.50;43.06;100473.84;5045163;28;20140;-61
2021/10/11 06:17:44;;;;;;;2.35;1.35;;;;;;;19.48;43.21;100464.84;5049171;28;20416;-61
2021/10/11 06:20:11;;;;;;;2.80;1.98;;;;;;;19.45;43.01;100453.38;5042321;28;20140;-61
2021/10/11 06:22:38;;;;;;;0.77;0.77;;;;;;;19.41;43.40;100470.25;5044639;28;20456;-61
2021/10/11 06:25:06;;;;;;;2.60;1.55;;;;;;;19.44;43.34;100458.22;5027225;28;20127;-61
2021/10/11 06:27:33;;;;;;;2.70;1.52;;;;;;;19.39;43.30;100455.63;5043315;28;20131;-61
2021/10/11 06:30:00;;;;;;;2.33;1.65;;;;;;;19.30;43.31;100449.16;5043380;28;20460;-61
2021/10/11 06:32:27;;;;;;;2.17;1.52;;;;;;;19.42;43.25;100466.25;5040787;28;20164;-59
2021/10/11 06:34:54;;;;;;;2.35;1.63;;;;;;;19.42;43.66;100471.91;5046894;28;20136;-58
2021/10/11 06:37:21;;;;;;;3.47;1.58;;;;;;;19.35;43.82;100477.25;5050637;28;20091;-63
2021/10/11 06:39:48;;;;;;;2.25;1.88;;;;;;;19.33;43.58;100473.97;5048289;28;20079;-65
2021/10/11 06:42:15;;;;;;;1.88;1.23;;;;;;;19.35;43.53;100478.13;5045970;28;20107;-59
2021/10/11 06:44:42;;;;;;;1.85;1.27;;;;;;;19.24;43.58;100473.16;5029546;28;20131;-62
2021/10/11 06:47:09;;;;;;;5.93;1.60;;;;;;;19.37;43.73;100480.59;5045048;28;20124;-60
2021/10/11 06:49:36;;;;;;;3.95;1.98;;;;;;;19.24;43.85;100482.50;5042582;28;20373;-61
2021/10/11 06:52:03;;;;;;;1.77;1.20;;;;;;;19.30;43.59;100486.78;5038309;28;20512;-60
2021/10/11 06:54:31;;;;;;;4.53;2.35;;;;;;;19.29;43.83;100490.81;5039542;28;20172;-61
2021/10/11 06:56:57;;;;;;;1.85;1.25;;;;;;;19.29;43.85;100489.97;5040920;28;20069;-61
2021/10/11 06:59:24;;;;;;;2.33;1.67;;;;;;;19.07;43.63;100455.09;5049640;28;20083;-61
2021/10/11 07:01:51;;;;;;;1.90;1.48;;;;;;;19.38;43.84;100487.91;5048327;28;20088;-61
2021/10/11 07:04:38;;;;;;;4.88;2.35;;;;;;;19.39;43.93;100495.25;5034891;28;20504;-59
2021/10/11 07:07:05;;;;;;;2.78;1.95;;;;;;;19.42;43.91;100505.91;5048667;28;20550;-62
2021/10/11 07:09:32;;;;;;;4.57;2.28;;;;;;;19.20;43.37;100461.69;5037252;28;20355;-59
2021/10/11 07:11:59;;;;;;;2.05;1.50;;;;;;;19.41;43.57;100482.38;5039065;28;20120;-60
2021/10/11 07:14:26;;;;;;;5.38;2.42;;;;;;;19.68;43.51;100502.09;5047859;28;20474;-59
2021/10/11 07:16:53;;;;;;;14.18;2.90;;;;;;;19.51;43.62;100503.84;5050774;28;20052;-59
2021/10/11 07:19:21;;;;;;;4.90;2.03;;;;;;;19.74;43.50;100538.41;5036883;28;20049;-60
2021/10/11 07:21:48;;;;;;;4.20;2.15;;;;;;;19.75;43.29;100508.88;5049999;28;20167;-60
2021/10/11 07:24:15;;;;;;;8.30;1.65;;;;;;;19.85;43.12;100513.31;5048102;28;20136;-61
2021/10/11 07:26:42;;;;;;;3.17;2.00;;;;;;;19.78;43.09;100525.19;5048558;28;20092;-60
2021/10/11 07:29:09;;;;;;;1.10;1.00;;;;;;;19.78;43.42;100513.03;5052143;28;20128;-60
2021/10/11 07:31:36;;;;;;;2.28;1.88;;;;;;;19.79;43.34;100511.84;5036134;28;20472;-62
2021/10/11 07:34:04;;;;;;;3.20;1.50;;;;;;;19.62;43.35;100510.78;5051455;28;20243;-60
2021/10/11 07:36:32;;;;;;;8.03;2.73;;;;;;;19.90;43.32;100513.13;5050013;28;20045;-60
2021/10/11 07:39:01;;;;;;;4.80;2.25;;;;;;;19.86;43.26;100495.13;5041980;28;20041;-61
2021/10/11 07:41:28;;;;;;;2.40;1.60;;;;;;;19.97;43.22;100527.56;5044486;28;20051;-60
2021/10/11 07:43:55;;;;;;;2.42;1.88;;;;;;;20.12;43.08;100524.09;5035637;28;20500;-60
2021/10/11 07:46:22;;;;;;;4.13;2.08;;;;;;;20.30;42.79;100524.78;5048174;28;20127;-60
2021/10/11 07:48:49;;;;;;;2.35;1.52;;;;;;;20.09;42.63;100495.63;5051268;28;20071;-60
2021/10/11 07:51:16;;;;;;;1.55;1.20;;;;;;;20.12;42.87;100526.94;5033017;28;20100;-60
2021/10/11 07:53:43;;;;;;;5.40;2.47;;;;;;;20.19;42.70;100517.06;5044532;28;20124;-58
2021/10/11 07:56:10;;;;;;;1.40;1.30;;;;;;;20.24;42.59;100531.00;5041175;28;20081;-58
2021/10/11 07:58:37;;;;;;;4.30;2.25;;;;;;;20.74;42.11;100538.59;5038030;28;20088;-58
2021/10/11 08:01:04;;;;;;;3.03;1.92;;;;;;;21.12;41.48;100541.16;5046472;28;20077;-59
2021/10/11 08:03:31;;;;;;;1.40;1.15;;;;;;;21.36;40.87;100543.25;5042259;28;20402;-60
2021/10/11 08:06:03;;;;;;;4.57;2.55;;;;;;;21.37;40.88;100550.59;5042314;28;20073;-59
2021/10/11 08:08:31;;;;;;;2.70;1.92;;;;;;;21.34;41.07;100542.78;5042102;28;20056;-59
2021/10/11 08:10:58;;;;;;;1.55;1.45;;;;;;;21.22;41.06;100549.22;5041990;28;20199;-60
2021/10/11 08:13:25;;;;;;;2.60;1.73;;;;;;;21.35;40.82;100547.28;5048703;28;20178;-60
2021/10/11 08:15:52;;;;;;;5.15;3.03;;;;;;;21.45;40.61;100515.56;5055032;28;20083;-60
2021/10/11 08:18:19;;;;;;;6.63;2.35;;;;;;;22.15;39.88;100562.88;5055454;28;20049;-60
2021/10/11 08:20:46;;;;;;;3.05;1.95;;;;;;;22.10;39.50;100549.72;5046965;28;20040;-60
2021/10/11 08:23:14;;;;;;;7.20;2.22;;;;;;;21.76;39.62;100539.69;5046388;28;20128;-60
2021/10/11 08:25:40;;;;;;;6.20;1.40;;;;;;;21.62;39.88;100550.59;5042058;28;20552;-60
2021/10/11 08:28:07;;;;;;;2.38;1.80;;;;;;;21.38;39.97;100523.84;5032273;28;20469;-60
2021/10/11 08:30:36;;;;;;;2.10;1.48;;;;;;;21.52;40.19;100561.25;5052125;28;20490;-60
2021/10/11 08:33:03;;;;;;;7.32;2.88;;;;;;;21.53;40.33;100548.69;5041627;28;20136;-60
2021/10/11 08:35:30;;;;;;;2.65;1.90;;;;;;;21.45;40.59;100569.53;5050815;28;20456;-60
2021/10/11 08:37:56;;;;;;;0.98;0.90;;;;;;;21.58;40.71;100575.25;5051995;28;20140;-60
2021/10/11 08:40:23;;;;;;;1.48;1.27;;;;;;;21.40;40.73;100566.94;5041236;28;20072;-60
2021/10/11 08:42:51;;;;;;;4.05;1.92;;;;;;;21.45;40.76;100569.53;5045545;28;20476;-60
2021/10/11 08:45:18;;;;;;;1.25;1.15;;;;;;;21.85;40.28;100574.53;5031469;28;20532;-60
2021/10/11 08:47:47;;;;;;;6.15;1.63;;;;;;;22.18;39.90;100582.06;5036448;28;20128;-60
2021/10/11 08:50:16;;;;;;;1.90;1.27;;;;;;;22.15;39.56;100579.94;5045740;28;20132;-60
2021/10/11 08:52:43;;;;;;;;;;;;;;;22.07;40.01;100595.09;5048838;28;20076;-60
2021/10/11 08:55:10;;;;;;;3.00;2.05;;;;;;;22.48;39.38;100582.59;5045715;28;19967;-60
2021/10/11 08:57:37;;;;;;;2.65;1.88;;;;;;;23.13;38.44;100583.28;5040871;28;20398;-60
2021/10/11 09:00:19;;;;;;;3.70;2.22;;;;;;;23.83;37.77;100562.72;5043850;28;20121;-60
2021/10/11 09:02:54;;;;;;;4.32;2.92;;;;;;;24.34;35.85;100582.66;5045105;28;20436;-60
2021/10/11 09:05:28;;;;;;;2.20;1.45;;;;;;;24.73;35.57;100582.69;5050662;28;20480;-60
2021/10/11 09:08:06;;;;;;;2.17;1.92;;;;;;;24.76;35.21;100587.66;5045872;28;20112;-60
2021/10/11 09:10:56;;;;;;;4.85;1.92;;;;;;;24.79;34.98;100584.06;5045585;28;20068;-60
2021/10/11 09:13:32;;;;;;;3.50;1.73;;;;;;;25.19;34.90;100582.81;5052303;28;20168;-60
2021/10/11 09:16:41;;;;;;;3.17;2.30;;;;;;;25.69;33.71;100598.00;5047731;28;20077;-60
2021/10/11 09:19:12;;;;;;;6.87;2.80;;;;;;;25.68;33.95;100592.69;5046630;28;20100;-60
2021/10/11 09:21:39;;;;;;;3.95;2.72;;;;;;;25.58;33.43;100591.28;5047239;28;20068;-60
2021/10/11 09:24:20;;;;;;;4.82;2.65;;;;;;;25.86;33.50;100604.47;5052259;28;20498;-60
2021/10/11 09:27:01;;;;;;;3.65;2.92;;;;;;;25.96;33.24;100592.38;5051262;28;20041;-60
2021/10/11 09:29:34;;;;;;;2.83;2.15;;;;;;;25.83;33.05;100600.31;5052989;28;20040;-60
2021/10/11 09:32:03;;;;;;;2.65;1.63;;;;;;;25.57;33.32;100586.75;5048939;28;20081;-60
2021/10/11 09:34:32;;;;;;;2.65;1.92;;;;;;;25.51;33.56;100606.28;5046569;28;20048;-60
2021/10/11 09:37:07;;;;;;;3.10;2.38;;;;;;;25.62;33.14;100600.75;5049318;28;20119;-73
2021/10/11 09:39:36;;;;;;;5.18;2.72;;;;;;;25.89;32.77;100569.38;5051567;28;20049;-69
2021/10/11 09:42:06;;;;;;;4.97;2.00;;;;;;;26.49;32.50;100592.34;5050303;28;20124;-66
2021/10/11 09:44:32;;;;;;;2.20;2.00;;;;;;;26.72;32.30;100625.78;5051962;28;20052;-67
2021/10/11 09:49:26;;;;;;;1.42;1.33;;;;;;;26.94;31.72;100610.53;5052467;28;20069;-67
2021/10/11 09:51:55;;;;;;;4.28;2.72;;;;;;;27.04;31.80;100595.47;5047224;28;20124;-67
2021/10/11 09:54:23;;;;;;;3.35;2.08;;;;;;;27.38;31.29;100609.81;5050318;28;20551;-68
2021/10/11 09:56:50;;;;;;;2.97;2.22;;;;;;;27.67;31.25;100618.72;5050876;28;20459;-67
2021/10/11 09:59:17;;;;;;;3.05;1.95;;;;;;;27.91;31.12;100618.13;5050571;28;20076;-68
2021/10/11 10:01:47;;;;;;;6.78;2.95;;;;;;;28.16;30.20;100603.13;5051484;28;20508;-67
2021/10/11 10:04:20;;;;;;;4.35;2.15;;;;;;;28.36;30.12;100604.50;5048696;28;20125;-68
2021/10/11 10:06:49;;;;;;;4.50;2.58;;;;;;;28.58;29.80;100568.09;5045478;28;20454;-67
2021/10/11 10:09:18;;;;;;;3.53;2.28;;;;;;;28.68;29.69;100609.63;5051179;28;20135;-67
2021/10/11 10:11:45;;;;;;;4.45;2.30;;;;;;;28.69;29.48;100600.59;5028941;28;20060;-68
2021/10/11 10:14:22;;;;;;;2.83;2.30;;;;;;;28.62;29.05;100600.56;5051227;28;20132;-65
2021/10/11 10:16:51;;;;;;;3.70;2.28;;;;;;;28.85;29.45;100616.66;5031600;28;20110;-67
2021/10/11 10:19:20;;;;;;;4.20;2.90;;;;;;;29.11;29.18;100595.44;5050582;28;20077;-67
2021/10/11 10:21:47;;;;;;;;;;;;;;;29.09;29.39;100603.66;5052380;28;20045;-65
2021/10/11 10:24:25;;;;;;;3.97;2.58;;;;;;;29.27;28.32;100593.84;5053038;28;20007;-66
2021/10/11 10:27:09;;;;;;;3.92;2.75;;;;;;;29.26;28.24;100595.06;5050241;28;20107;-67
2021/10/11 10:29:44;;;;;;;4.43;2.72;;;;;;;28.89;27.97;100560.88;5038108;28;20136;-66
2021/10/11 10:32:13;;;;;;;5.20;3.33;;;;;;;29.13;28.43;100599.56;5043281;28;20053;-65
2021/10/11 10:34:41;;;;;;;6.57;3.28;;;;;;;29.61;28.38;100605.03;5041965;28;20076;-66
2021/10/11 10:37:10;;;;;;;5.13;2.20;;;;;;;29.90;28.17;100582.81;5049478;28;20103;-65
2021/10/11 10:39:44;;;;;;;2.60;2.03;;;;;;;30.16;27.27;100595.97;5050111;28;20041;-67
2021/10/11 10:42:20;;;;;;;4.65;3.00;;;;;;;30.29;27.91;100589.78;5031682;28;20043;-66
2021/10/11 10:44:47;;;;;;;4.15;2.80;;;;;;;30.72;27.27;100604.88;5049049;28;20045;-66
2021/10/11 10:47:14;;;;;;;4.95;2.60;;;;;;;31.13;27.21;100610.91;5050763;28;20085;-66
2021/10/11 10:49:47;;;;;;;3.97;2.47;;;;;;;30.91;26.56;100597.84;5044012;28;20076;-67
2021/10/11 10:52:19;;;;;;;3.45;2.72;;;;;;;30.55;26.25;100574.06;5030345;28;20103;-66
2021/10/11 10:54:53;;;;;;;4.57;2.35;;;;;;;30.70;27.09;100581.41;5049028;28;20049;-67
2021/10/11 10:57:25;;;;;;;4.15;3.30;;;;;;;30.50;26.92;100600.44;5047537;28;20136;-66
2021/10/11 10:59:56;;;;;;;4.40;3.00;;;;;;;30.65;26.57;100604.91;5049538;28;20072;-66
2021/10/11 11:02:28;;;;;;;6.15;2.70;;;;;;;30.75;26.41;100595.41;5048433;28;20068;-64
2021/10/11 11:05:05;;;;;;;4.18;2.63;;;;;;;30.76;25.78;100556.72;5043487;28;20056;-64
2021/10/11 11:07:37;;;;;;;5.25;2.88;;;;;;;31.21;25.98;100602.19;5052300;28;20401;-66
2021/10/11 11:10:17;;;;;;;6.07;2.50;;;;;;;30.78;26.37;100606.13;5045787;28;20056;-65
2021/10/11 11:12:51;;;;;;;5.60;3.38;;;;;;;31.06;25.85;100598.59;5047828;28;20148;-68
2021/10/11 11:15:28;;;;;;;5.38;2.78;;;;;;;31.53;25.35;100610.69;5051808;28;20053;-67
2021/10/11 11:17:57;;;;;;;5.47;2.50;;;;;;;31.44;25.59;100610.34;5040020;28;20041;-65
2021/10/11 11:20:27;;;;;;;5.80;3.28;;;;;;;31.76;25.21;100602.28;5035008;28;20132;-69
2021/10/11 11:23:00;;;;;;;4.22;2.75;;;;;;;31.85;25.31;100593.13;5028312;28;20049;-69
2021/10/11 11:25:34;;;;;;;3.25;1.98;;;;;;;31.88;25.16;100612.50;5046882;28;20475;-68
2021/10/11 11:28:04;;;;;;;4.93;2.88;;;;;;;31.99;24.96;100597.97;5031864;28;20469;-67
2021/10/11 11:30:31;;;;;;;5.75;3.30;;;;;;;32.70;24.78;100602.19;5032955;28;20082;-67
2021/10/11 11:33:10;;;;;;;3.35;2.70;;;;;;;33.01;24.06;100589.41;5036708;28;20084;-66
2021/10/11 11:35:49;;;;;;;4.45;3.08;;;;;;;33.06;23.69;100593.91;5038351;28;20081;-67